Newcastle, Australia
Current Conditions -  °F | °C
As of 12:30 PM on Thursday 23 Oct 2014 (Local Time) from YWLM Reporting Station
Clear Clear  
Wind Chill: 82°   Ceiling: Unl
Heat Index: 82°   Visibility: 6mi
Dew Point: 54°   Wind: 10mph
Humidity: 37%   Direction: 300°WNW
Pressure: 30.03"   Gusts: NA
Location:  32.93°S, 151.78°E
Report Text: YWLM 230130Z 30009KT CAVOK 28/12 Q1017
Loading
Personal Weather Stations






























Interactive Weather Map
Tropical Storm Tracking
New forecast layout! Learn more

10-Day Weather Forecast

Advertisements
Track Severe Weather on mobile